createdAt,value
2017-11-23T00:01:01.626Z,99.20
2017-11-23T00:03:35.398Z,99.90
2017-11-23T00:06:09.161Z,99.90
2017-11-23T00:08:44.415Z,98.60
2017-11-23T00:11:18.089Z,98.60
2017-11-23T00:13:52.845Z,99.90
2017-11-23T00:16:26.556Z,99.90
2017-11-23T00:19:02.035Z,99.90
2017-11-23T00:21:36.382Z,99.90
2017-11-23T00:24:12.007Z,99.00
2017-11-23T00:26:46.297Z,99.30
2017-11-23T00:29:20.052Z,99.40
2017-11-23T00:31:53.686Z,99.90
2017-11-23T00:34:28.962Z,99.90
2017-11-23T00:37:03.542Z,99.30
2017-11-23T00:39:38.213Z,99.30
2017-11-23T00:42:11.855Z,99.90
2017-11-23T00:44:46.943Z,99.90
2017-11-23T00:47:20.765Z,99.40
2017-11-23T00:49:54.588Z,99.90
2017-11-23T00:52:29.880Z,99.20
2017-11-23T00:55:04.323Z,99.90
2017-11-23T00:57:38.829Z,99.90
2017-11-23T01:00:12.539Z,99.90
2017-11-23T01:02:46.398Z,99.90
2017-11-23T01:05:21.004Z,99.90
2017-11-23T01:07:54.782Z,99.90
2017-11-23T01:10:29.374Z,99.90
2017-11-23T01:13:03.983Z,98.70
2017-11-23T01:15:37.745Z,99.00
2017-11-23T01:18:12.343Z,98.90
2017-11-23T01:20:46.130Z,98.90
2017-11-23T01:23:21.855Z,98.70
2017-11-23T01:25:55.598Z,99.90
2017-11-23T01:28:29.312Z,99.30
2017-11-23T01:31:03.072Z,99.90
2017-11-23T01:33:36.877Z,99.30
2017-11-23T01:36:11.581Z,99.90
2017-11-23T01:38:45.300Z,99.90
2017-11-23T01:41:18.957Z,99.30
2017-11-23T01:43:52.772Z,99.80
2017-11-23T01:46:27.303Z,99.90
2017-11-23T01:49:01.157Z,99.90
2017-11-23T01:51:34.970Z,99.90
2017-11-23T01:54:09.549Z,99.90
2017-11-23T01:56:45.017Z,99.90
2017-11-23T01:59:19.595Z,99.90
2017-11-23T02:01:54.288Z,99.90
2017-11-23T02:04:28.279Z,99.90
2017-11-23T02:07:02.754Z,99.90
2017-11-23T02:09:36.782Z,99.90
2017-11-23T02:12:11.961Z,99.90
2017-11-23T02:14:46.228Z,99.90
2017-11-23T02:17:20.217Z,99.30
2017-11-23T02:19:54.079Z,99.20
2017-11-23T02:22:27.795Z,98.60
2017-11-23T02:25:02.475Z,99.00
2017-11-23T02:27:36.943Z,99.00
2017-11-23T02:30:11.808Z,98.70
2017-11-23T02:32:47.472Z,99.70
2017-11-23T02:35:21.128Z,99.90
2017-11-23T02:37:54.949Z,99.90
2017-11-23T02:40:30.763Z,99.90
2017-11-23T02:43:04.523Z,99.70
2017-11-23T02:45:39.145Z,98.90
2017-11-23T02:48:12.781Z,99.90
2017-11-23T02:50:47.420Z,99.90
2017-11-23T02:53:21.315Z,99.90
2017-11-23T02:55:56.883Z,99.90
2017-11-23T02:58:31.582Z,99.90
2017-11-23T03:01:05.856Z,99.90
2017-11-23T03:03:39.614Z,99.40
2017-11-23T03:06:13.337Z,99.90
2017-11-23T03:08:47.028Z,99.90
2017-11-23T03:11:21.423Z,99.90
2017-11-23T03:13:56.006Z,99.90
2017-11-23T03:16:29.828Z,99.50
2017-11-23T03:19:04.289Z,99.00
2017-11-23T03:21:38.749Z,99.90
2017-11-23T03:24:12.616Z,99.90
2017-11-23T03:26:47.242Z,99.90
2017-11-23T03:29:20.987Z,99.90
2017-11-23T03:31:55.314Z,99.90
2017-11-23T03:34:30.899Z,99.20
2017-11-23T03:37:04.794Z,99.20
2017-11-23T03:39:38.661Z,99.10
2017-11-23T03:42:13.335Z,99.90
2017-11-23T03:44:47.808Z,99.90
2017-11-23T03:47:21.492Z,99.90
2017-11-23T03:49:55.492Z,99.90
2017-11-23T03:52:29.808Z,99.90
2017-11-23T03:55:04.292Z,99.50
2017-11-23T03:57:38.140Z,99.70
2017-11-23T04:00:12.564Z,99.90
2017-11-23T04:02:46.181Z,99.90
2017-11-23T04:05:20.807Z,99.90
2017-11-23T04:07:56.130Z,99.90
2017-11-23T04:10:31.038Z,99.90
2017-11-23T04:13:04.850Z,99.90
2017-11-23T04:15:39.522Z,99.90
2017-11-23T04:18:13.919Z,99.90
2017-11-23T04:20:47.819Z,99.30
2017-11-23T04:23:22.246Z,98.90
2017-11-23T04:25:57.519Z,99.10
2017-11-23T04:28:31.331Z,98.70
2017-11-23T04:31:04.925Z,98.70
2017-11-23T04:33:38.713Z,99.00
2017-11-23T04:36:12.946Z,99.60
2017-11-23T04:38:46.821Z,98.60
2017-11-23T04:41:21.293Z,98.80
2017-11-23T04:43:55.219Z,98.80
2017-11-23T04:46:28.942Z,98.10
2017-11-23T04:49:02.837Z,98.10
2017-11-23T04:51:36.658Z,98.50
2017-11-23T04:54:10.505Z,99.90
2017-11-23T04:56:44.396Z,99.90
2017-11-23T04:59:18.814Z,99.40
2017-11-23T05:01:52.714Z,99.40
2017-11-23T05:04:26.433Z,98.90
2017-11-23T05:07:01.050Z,99.30
2017-11-23T05:09:34.828Z,99.90
2017-11-23T05:12:08.758Z,99.90
2017-11-23T05:14:42.702Z,99.50
2017-11-23T05:17:16.530Z,99.00
2017-11-23T05:19:50.357Z,99.10
2017-11-23T05:22:24.113Z,98.70
2017-11-23T05:24:58.638Z,98.30
2017-11-23T05:27:32.413Z,98.30
2017-11-23T05:30:06.730Z,98.00
2017-11-23T05:32:40.507Z,98.70
2017-11-23T05:35:15.077Z,98.30
2017-11-23T05:37:48.934Z,98.20
2017-11-23T05:40:23.359Z,98.90
2017-11-23T05:42:57.973Z,99.90
2017-11-23T05:45:31.757Z,99.90
2017-11-23T05:48:06.168Z,99.90
2017-11-23T05:50:41.478Z,99.90
2017-11-23T05:53:16.190Z,99.90
2017-11-23T05:55:51.504Z,99.90
2017-11-23T05:58:25.240Z,99.90
2017-11-23T06:00:59.011Z,99.90
2017-11-23T06:03:33.157Z,99.90
2017-11-23T06:06:07.378Z,99.90
2017-11-23T06:08:43.086Z,99.60
2017-11-23T06:11:17.665Z,99.40
2017-11-23T06:13:52.644Z,99.30
2017-11-23T06:16:27.733Z,98.80
2017-11-23T06:19:03.077Z,98.80
2017-11-23T06:21:36.650Z,98.40
2017-11-23T06:24:10.654Z,97.20
2017-11-23T06:26:44.413Z,98.00
2017-11-23T06:29:19.074Z,98.50
2017-11-23T06:31:54.321Z,98.80
2017-11-23T06:34:28.186Z,97.70
2017-11-23T06:37:03.795Z,98.20
2017-11-23T06:39:38.286Z,98.00
2017-11-23T06:42:12.050Z,98.00
2017-11-23T06:44:47.704Z,98.60
2017-11-23T06:47:21.531Z,98.10
2017-11-23T06:49:55.373Z,98.00
2017-11-23T06:52:30.502Z,98.90
2017-11-23T06:55:05.301Z,98.70
2017-11-23T06:57:39.083Z,99.00
2017-11-23T07:00:12.947Z,98.80
2017-11-23T07:02:46.790Z,98.40
2017-11-23T07:05:21.276Z,98.90
2017-11-23T07:07:56.158Z,98.80
2017-11-23T07:10:30.595Z,99.20
2017-11-23T07:13:04.425Z,98.80
2017-11-23T07:15:38.284Z,99.10
2017-11-23T07:18:12.936Z,99.60
2017-11-23T07:20:46.696Z,99.60
2017-11-23T07:23:24.280Z,99.90
2017-11-23T07:25:57.950Z,99.90
2017-11-23T07:28:31.791Z,99.90
2017-11-23T07:31:06.445Z,99.90
2017-11-23T07:33:40.318Z,99.90
2017-11-23T07:36:14.089Z,99.90
2017-11-23T07:38:47.949Z,99.90
2017-11-23T07:41:21.793Z,99.90
2017-11-23T07:43:55.643Z,99.90
2017-11-23T07:46:30.420Z,99.90
2017-11-23T07:49:04.193Z,99.90
2017-11-23T07:51:38.590Z,99.90
2017-11-23T07:54:12.223Z,99.90
2017-11-23T07:56:45.982Z,99.90
2017-11-23T07:59:20.744Z,99.90
2017-11-23T08:01:54.941Z,99.90
2017-11-23T08:04:29.394Z,99.90
2017-11-23T08:07:03.016Z,99.90
2017-11-23T08:09:36.896Z,99.70
2017-11-23T08:12:11.366Z,99.90
2017-11-23T08:14:46.439Z,99.10
2017-11-23T08:17:20.195Z,99.10
2017-11-23T08:19:56.651Z,99.30
2017-11-23T08:22:30.470Z,98.40
2017-11-23T08:25:04.172Z,99.50
2017-11-23T08:27:39.459Z,99.90
2017-11-23T08:30:13.836Z,99.90
2017-11-23T08:32:47.811Z,99.70
2017-11-23T08:35:22.693Z,99.50
2017-11-23T08:37:56.467Z,99.10
2017-11-23T08:40:31.162Z,97.60
2017-11-23T08:43:05.072Z,96.90
2017-11-23T08:45:39.781Z,97.70
2017-11-23T08:48:14.395Z,98.20
2017-11-23T08:50:48.187Z,98.10
2017-11-23T08:53:22.173Z,96.90
2017-11-23T08:55:55.844Z,94.90
2017-11-23T08:58:29.741Z,94.40
2017-11-23T09:01:04.226Z,95.10
2017-11-23T09:03:37.920Z,95.10
2017-11-23T09:06:12.702Z,94.70
2017-11-23T09:08:46.449Z,93.20
2017-11-23T09:11:20.390Z,93.30
2017-11-23T09:13:54.203Z,93.20
2017-11-23T09:16:28.600Z,91.20
2017-11-23T09:19:02.392Z,91.10
2017-11-23T09:21:37.103Z,90.30
2017-11-23T09:24:10.867Z,91.20
2017-11-23T09:26:45.495Z,88.40
2017-11-23T09:29:19.264Z,88.30
2017-11-23T09:31:53.783Z,88.80
2017-11-23T09:34:27.495Z,88.80
2017-11-23T09:37:02.697Z,88.30
2017-11-23T09:39:37.221Z,89.40
2017-11-23T09:42:11.126Z,89.30
2017-11-23T09:44:44.950Z,86.40
2017-11-23T09:47:18.772Z,88.10
2017-11-23T09:49:53.114Z,86.30
2017-11-23T09:52:28.051Z,79.20
2017-11-23T09:55:03.692Z,80.40
2017-11-23T09:57:38.464Z,78.60
2017-11-23T10:00:12.445Z,77.30
2017-11-23T10:02:46.989Z,74.50
2017-11-23T10:05:21.584Z,71.20
2017-11-23T10:07:55.159Z,71.20
2017-11-23T10:10:28.910Z,65.70
2017-11-23T10:13:02.723Z,65.60
2017-11-23T10:15:38.299Z,61.80
2017-11-23T10:18:11.936Z,55.70
2017-11-23T10:20:45.902Z,53.10
2017-11-23T10:23:19.609Z,53.10
2017-11-23T10:25:53.528Z,52.60
2017-11-23T10:28:27.247Z,52.40
2017-11-23T10:31:01.035Z,52.00
2017-11-23T10:33:35.427Z,51.00
2017-11-23T10:36:09.105Z,50.90
2017-11-23T10:38:42.810Z,50.90
2017-11-23T10:41:17.555Z,52.90
2017-11-23T10:43:52.211Z,52.90
2017-11-23T10:46:26.091Z,53.10
2017-11-23T10:49:00.101Z,55.00
2017-11-23T10:51:34.797Z,50.60
2017-11-23T10:54:08.603Z,48.80
2017-11-23T10:56:42.371Z,51.40
2017-11-23T10:59:16.078Z,48.70
2017-11-23T11:01:49.851Z,48.80
2017-11-23T11:04:23.623Z,51.90
2017-11-23T11:06:57.398Z,52.10
2017-11-23T11:09:31.304Z,51.60
2017-11-23T11:12:07.128Z,50.70
2017-11-23T11:14:40.995Z,50.60
2017-11-23T11:17:15.528Z,51.40
2017-11-23T11:19:50.158Z,51.40
2017-11-23T11:22:25.375Z,51.40
2017-11-23T11:25:01.097Z,50.20
2017-11-23T11:27:34.717Z,50.20
2017-11-23T11:30:08.606Z,49.00
2017-11-23T11:32:42.382Z,50.40
2017-11-23T11:35:16.097Z,49.30
2017-11-23T11:37:50.870Z,47.60
2017-11-23T11:40:25.396Z,48.70
2017-11-23T11:42:59.137Z,47.60
2017-11-23T11:45:32.963Z,47.90
2017-11-23T11:48:08.324Z,48.10
2017-11-23T11:50:42.141Z,48.00
2017-11-23T11:53:15.950Z,48.90
2017-11-23T11:55:50.604Z,49.50
2017-11-23T11:58:24.533Z,48.10
2017-11-23T12:00:59.221Z,49.20
2017-11-23T12:03:33.010Z,48.70
2017-11-23T12:06:07.606Z,47.70
2017-11-23T12:08:41.288Z,46.80
2017-11-23T12:11:15.789Z,45.50
2017-11-23T12:14:01.508Z,45.40
2017-11-23T12:16:47.398Z,46.40
2017-11-23T12:19:21.245Z,45.90
2017-11-23T12:22:00.994Z,45.00
2017-11-23T12:24:35.580Z,46.80
2017-11-23T12:27:10.097Z,46.80
2017-11-23T12:29:56.662Z,45.00
2017-11-23T12:32:30.435Z,45.00
2017-11-23T12:35:04.956Z,45.10
2017-11-23T12:37:40.616Z,45.00
2017-11-23T12:40:14.531Z,45.70
2017-11-23T12:42:48.999Z,44.60
2017-11-23T12:45:22.898Z,45.40
2017-11-23T12:47:57.398Z,47.40
2017-11-23T12:50:31.863Z,46.70
2017-11-23T12:53:06.496Z,47.20
2017-11-23T12:55:40.324Z,47.10
2017-11-23T12:58:14.055Z,46.40
2017-11-23T13:00:47.821Z,45.80
2017-11-23T13:03:21.522Z,45.50
2017-11-23T13:05:55.514Z,46.50
2017-11-23T13:08:30.013Z,45.60
2017-11-23T13:11:04.428Z,43.90
2017-11-23T13:13:39.231Z,43.80
2017-11-23T13:16:12.962Z,43.40
2017-11-23T13:18:46.801Z,45.40
2017-11-23T13:21:20.730Z,47.50
2017-11-23T13:23:54.585Z,48.20
2017-11-23T13:26:28.866Z,49.90
2017-11-23T13:29:03.587Z,52.40
2017-11-23T13:31:38.189Z,53.40
2017-11-23T13:34:11.863Z,53.30
2017-11-23T13:36:45.699Z,52.70
2017-11-23T13:39:19.423Z,53.90
2017-11-23T13:41:53.782Z,54.80
2017-11-23T13:44:27.436Z,55.00
2017-11-23T13:47:01.965Z,54.70
2017-11-23T13:49:35.683Z,54.60
2017-11-23T13:52:09.420Z,55.50
2017-11-23T13:54:43.408Z,56.50
2017-11-23T13:57:17.209Z,55.70
2017-11-23T13:59:50.941Z,56.40
2017-11-23T14:02:24.900Z,57.70
2017-11-23T14:05:00.093Z,58.30
2017-11-23T14:07:33.957Z,58.30
2017-11-23T14:10:09.424Z,59.60
2017-11-23T14:12:44.255Z,56.10
2017-11-23T14:15:18.022Z,56.00
2017-11-23T14:17:51.756Z,58.40
2017-11-23T14:20:25.476Z,60.50
2017-11-23T14:22:59.398Z,62.10
2017-11-23T14:25:34.032Z,64.50
2017-11-23T14:28:07.899Z,66.60
2017-11-23T14:30:41.659Z,63.30
2017-11-23T14:33:16.056Z,64.80
2017-11-23T14:35:49.843Z,62.90
2017-11-23T14:38:23.708Z,64.10
2017-11-23T14:40:59.842Z,64.60
2017-11-23T14:43:34.285Z,64.70
2017-11-23T14:46:09.666Z,65.40
2017-11-23T14:48:43.334Z,65.30
2017-11-23T14:51:17.726Z,64.10
2017-11-23T14:53:51.452Z,67.40
2017-11-23T14:56:27.141Z,69.70
2017-11-23T14:59:01.089Z,69.70
2017-11-23T15:01:34.624Z,71.50
2017-11-23T15:04:08.536Z,73.70
2017-11-23T15:06:43.012Z,75.10
2017-11-23T15:09:17.552Z,75.60
2017-11-23T15:11:52.930Z,75.80
2017-11-23T15:14:26.672Z,75.80
2017-11-23T15:17:00.484Z,76.10
2017-11-23T15:19:35.255Z,76.30
2017-11-23T15:22:09.688Z,76.20
2017-11-23T15:24:43.448Z,76.30
2017-11-23T15:27:18.077Z,76.20
2017-11-23T15:29:51.803Z,77.30
2017-11-23T15:32:25.467Z,81.60
2017-11-23T15:34:59.353Z,82.10
2017-11-23T15:37:34.550Z,88.30
2017-11-23T15:40:08.164Z,88.20
2017-11-23T15:42:42.584Z,87.30
2017-11-23T15:45:16.503Z,85.90
2017-11-23T15:47:50.241Z,86.20
2017-11-23T15:50:24.073Z,87.70
2017-11-23T15:52:58.211Z,88.60
2017-11-23T15:55:32.947Z,89.00
2017-11-23T15:58:07.541Z,88.10
2017-11-23T16:00:41.994Z,87.70
2017-11-23T16:03:15.668Z,87.30
2017-11-23T16:05:49.750Z,89.00
2017-11-23T16:08:24.295Z,90.00
2017-11-23T16:10:58.225Z,90.00
2017-11-23T16:13:32.698Z,90.20
2017-11-23T16:16:06.538Z,90.10
2017-11-23T16:18:40.968Z,91.20
2017-11-23T16:21:15.878Z,91.70
2017-11-23T16:23:49.724Z,93.00
2017-11-23T16:26:24.781Z,92.80
2017-11-23T16:28:58.604Z,92.60
2017-11-23T16:31:32.298Z,92.10
2017-11-23T16:34:06.955Z,92.30
2017-11-23T16:36:43.346Z,92.30
2017-11-23T16:39:17.723Z,92.70
2017-11-23T16:42:08.302Z,94.90
2017-11-23T16:44:48.914Z,94.90
2017-11-23T16:47:29.047Z,94.80
2017-11-23T17:03:44.055Z,92.40
2017-11-23T17:06:23.389Z,92.40
2017-11-23T17:09:03.692Z,91.70
2017-11-23T17:11:43.422Z,91.60
2017-11-23T17:14:22.805Z,91.60
2017-11-23T17:17:02.236Z,90.50
2017-11-23T17:19:36.037Z,91.20
2017-11-23T17:22:09.774Z,91.10
2017-11-23T17:24:44.518Z,91.80
2017-11-23T17:27:18.302Z,91.70
2017-11-23T17:29:52.054Z,91.40
2017-11-23T17:32:26.915Z,90.90
2017-11-23T17:35:02.883Z,91.10
2017-11-23T17:37:36.952Z,91.00
2017-11-23T17:40:10.887Z,90.90
2017-11-23T17:42:45.152Z,90.50
2017-11-23T17:45:19.869Z,90.20
2017-11-23T17:47:54.208Z,87.60
2017-11-23T17:50:29.000Z,89.00
2017-11-23T17:53:02.857Z,86.80
2017-11-23T17:55:36.676Z,84.70
2017-11-23T17:58:10.557Z,82.50
2017-11-23T18:00:45.213Z,82.40
2017-11-23T18:03:19.293Z,80.80
2017-11-23T18:05:53.035Z,81.30
2017-11-23T18:08:26.793Z,82.20
2017-11-23T18:11:00.626Z,79.30
2017-11-23T18:13:35.138Z,80.80
2017-11-23T18:16:08.923Z,80.70
2017-11-23T18:18:42.627Z,80.50
2017-11-23T18:21:17.742Z,81.40
2017-11-23T18:23:52.399Z,81.30
2017-11-23T18:26:27.106Z,81.60
2017-11-23T18:29:00.950Z,81.00
2017-11-23T18:31:35.704Z,81.00
2017-11-23T18:34:09.459Z,84.10
2017-11-23T18:36:43.809Z,83.60
2017-11-23T18:39:17.521Z,83.50
2017-11-23T18:41:52.213Z,84.80
2017-11-23T18:44:25.784Z,85.10
2017-11-23T18:46:59.792Z,85.00
2017-11-23T18:49:35.079Z,85.50
2017-11-23T18:52:08.966Z,85.30
2017-11-23T18:54:42.702Z,86.10
2017-11-23T18:57:16.490Z,86.50
2017-11-23T18:59:50.679Z,87.20
2017-11-23T19:02:24.428Z,88.40
2017-11-23T19:04:58.959Z,89.10
2017-11-23T19:07:34.557Z,89.00
2017-11-23T19:10:08.251Z,88.90
2017-11-23T19:12:42.230Z,90.10
2017-11-23T19:15:16.235Z,90.80
2017-11-23T19:17:51.012Z,90.90
2017-11-23T19:20:26.485Z,90.80
2017-11-23T19:23:00.912Z,91.50
2017-11-23T19:25:34.850Z,91.60
2017-11-23T19:28:08.775Z,91.20
2017-11-23T19:30:43.178Z,90.90
2017-11-23T19:33:17.960Z,90.60
2017-11-23T19:35:52.571Z,90.50
2017-11-23T19:38:26.219Z,90.70
2017-11-23T19:41:00.602Z,90.70
2017-11-23T19:43:35.203Z,91.20
2017-11-23T19:46:08.893Z,91.10
2017-11-23T19:48:42.811Z,91.10
2017-11-23T19:51:17.410Z,91.30
2017-11-23T19:53:51.972Z,91.30
2017-11-23T19:56:26.506Z,91.90
2017-11-23T19:59:00.334Z,91.90
2017-11-23T20:01:34.834Z,92.30
2017-11-23T20:04:09.705Z,92.60
2017-11-23T20:06:43.480Z,92.60
2017-11-23T20:09:17.275Z,92.70
2017-11-23T20:11:51.132Z,92.80
2017-11-23T20:14:25.032Z,93.10
2017-11-23T20:17:00.432Z,93.00
2017-11-23T20:19:34.110Z,93.40
2017-11-23T20:22:09.917Z,93.00
2017-11-23T20:24:43.733Z,93.50
2017-11-23T20:27:18.323Z,93.60
2017-11-23T20:29:53.086Z,93.60
2017-11-23T20:32:27.571Z,93.80
2017-11-23T20:35:02.932Z,94.10
2017-11-23T20:37:36.599Z,94.00
2017-11-23T20:40:10.420Z,94.40
2017-11-23T20:42:44.228Z,94.80
2017-11-23T20:45:18.103Z,94.80
2017-11-23T20:47:52.694Z,95.30
2017-11-23T20:50:28.074Z,95.30
2017-11-23T20:53:01.845Z,95.00
2017-11-23T20:55:35.890Z,95.10
2017-11-23T20:58:09.857Z,95.00
2017-11-23T21:00:43.666Z,95.50
2017-11-23T21:03:17.463Z,95.10
2017-11-23T21:05:51.922Z,96.00
2017-11-23T21:08:25.670Z,96.00
2017-11-23T21:10:59.337Z,95.90
2017-11-23T21:13:33.186Z,95.70
2017-11-23T21:16:06.765Z,96.00
2017-11-23T21:18:40.480Z,96.20
2017-11-23T21:21:14.162Z,96.00
2017-11-23T21:23:47.902Z,95.80
2017-11-23T21:26:21.412Z,96.00
2017-11-23T21:28:54.992Z,96.40
2017-11-23T21:31:28.761Z,96.20
2017-11-23T21:34:02.522Z,96.90
2017-11-23T21:36:36.344Z,97.00
2017-11-23T21:39:10.080Z,98.00
2017-11-23T21:41:44.580Z,97.60
2017-11-23T21:44:18.355Z,97.60
2017-11-23T21:46:51.957Z,97.50
2017-11-23T21:49:25.730Z,97.80
2017-11-23T21:52:00.168Z,97.60
2017-11-23T21:54:33.871Z,97.60
2017-11-23T21:57:08.242Z,97.10
2017-11-23T21:59:41.942Z,97.00
2017-11-23T22:02:15.635Z,96.80
2017-11-23T22:04:49.398Z,96.80
2017-11-23T22:07:23.064Z,97.30
2017-11-23T22:09:56.880Z,97.30
2017-11-23T22:12:30.418Z,97.30
2017-11-23T22:15:03.983Z,97.70
2017-11-23T22:17:37.723Z,97.10
2017-11-23T22:20:11.304Z,97.30
2017-11-23T22:22:44.911Z,97.60
2017-11-23T22:25:18.463Z,97.50
2017-11-23T22:27:56.568Z,97.60
2017-11-23T22:30:37.456Z,97.30
2017-11-23T22:33:22.808Z,98.00
2017-11-23T22:36:06.875Z,97.80
2017-11-23T22:38:45.639Z,98.40
2017-11-23T22:41:24.786Z,98.10
2017-11-23T22:44:04.349Z,98.70
2017-11-23T22:46:45.938Z,98.70
2017-11-23T22:49:22.780Z,99.40
2017-11-23T22:52:02.500Z,98.60
2017-11-23T22:54:41.503Z,98.30
2017-11-23T22:57:16.466Z,98.30
2017-11-23T22:59:56.104Z,98.20
2017-11-23T23:02:32.381Z,97.70
2017-11-23T23:05:08.617Z,97.30
2017-11-23T23:07:56.750Z,97.10
2017-11-23T23:10:31.189Z,97.10
2017-11-23T23:13:05.102Z,96.70
2017-11-23T23:15:40.802Z,95.90
2017-11-23T23:18:16.681Z,95.50
2017-11-23T23:20:51.536Z,95.50
2017-11-23T23:23:27.538Z,95.80
2017-11-23T23:26:05.070Z,95.30
2017-11-23T23:28:42.719Z,95.00
2017-11-23T23:31:19.093Z,94.70
2017-11-23T23:33:54.749Z,95.30
2017-11-23T23:36:30.574Z,95.10
2017-11-23T23:39:08.602Z,95.70
2017-11-23T23:41:46.221Z,95.80
2017-11-23T23:44:21.652Z,96.10
2017-11-23T23:46:59.526Z,96.70
2017-11-23T23:49:35.950Z,96.70
2017-11-23T23:52:11.404Z,96.70
2017-11-23T23:54:46.179Z,96.80
2017-11-23T23:57:22.329Z,96.70
2017-11-23T23:59:58.027Z,96.60
